sensor_id;sensor_type;location;lat;lon;timestamp;temperature;humidity
58447;DHT22;44240;51.840;7.258;2023-03-01T00:02:12;2.80;58.60
58447;DHT22;44240;51.840;7.258;2023-03-01T00:04:38;2.80;58.50
58447;DHT22;44240;51.840;7.258;2023-03-01T00:07:03;2.80;58.50
58447;DHT22;44240;51.840;7.258;2023-03-01T00:09:29;2.70;58.50
58447;DHT22;44240;51.840;7.258;2023-03-01T00:11:54;2.80;58.60
58447;DHT22;44240;51.840;7.258;2023-03-01T00:14:20;2.70;58.70
58447;DHT22;44240;51.840;7.258;2023-03-01T00:16:46;2.70;58.60
58447;DHT22;44240;51.840;7.258;2023-03-01T00:19:18;2.70;58.70
58447;DHT22;44240;51.840;7.258;2023-03-01T00:21:44;2.70;58.70
58447;DHT22;44240;51.840;7.258;2023-03-01T00:24:10;2.60;58.60
58447;DHT22;44240;51.840;7.258;2023-03-01T00:26:36;2.60;58.60
58447;DHT22;44240;51.840;7.258;2023-03-01T00:29:01;2.60;58.70
58447;DHT22;44240;51.840;7.258;2023-03-01T00:31:29;2.60;58.70
58447;DHT22;44240;51.840;7.258;2023-03-01T00:33:57;2.60;58.80
58447;DHT22;44240;51.840;7.258;2023-03-01T00:36:25;2.60;58.90
58447;DHT22;44240;51.840;7.258;2023-03-01T00:38:51;2.60;58.90
58447;DHT22;44240;51.840;7.258;2023-03-01T00:41:18;2.50;58.80
58447;DHT22;44240;51.840;7.258;2023-03-01T00:43:44;2.50;58.90
58447;DHT22;44240;51.840;7.258;2023-03-01T00:46:12;2.50;59.00
58447;DHT22;44240;51.840;7.258;2023-03-01T00:48:39;2.50;59.00
58447;DHT22;44240;51.840;7.258;2023-03-01T00:51:09;2.50;58.90
58447;DHT22;44240;51.840;7.258;2023-03-01T00:53:36;2.50;58.90
58447;DHT22;44240;51.840;7.258;2023-03-01T00:56:02;2.50;58.90
58447;DHT22;44240;51.840;7.258;2023-03-01T00:58:27;2.50;59.00
58447;DHT22;44240;51.840;7.258;2023-03-01T01:00:53;2.50;59.00
58447;DHT22;44240;51.840;7.258;2023-03-01T01:03:19;2.40;59.10
58447;DHT22;44240;51.840;7.258;2023-03-01T01:05:45;2.40;59.10
58447;DHT22;44240;51.840;7.258;2023-03-01T01:08:10;2.40;59.10
58447;DHT22;44240;51.840;7.258;2023-03-01T01:10:36;2.40;59.10
58447;DHT22;44240;51.840;7.258;2023-03-01T01:13:02;2.30;59.10
58447;DHT22;44240;51.840;7.258;2023-03-01T01:15:28;2.30;59.10
58447;DHT22;44240;51.840;7.258;2023-03-01T01:17:53;2.30;59.20
58447;DHT22;44240;51.840;7.258;2023-03-01T01:20:20;2.30;59.20
58447;DHT22;44240;51.840;7.258;2023-03-01T01:22:46;2.30;59.20
58447;DHT22;44240;51.840;7.258;2023-03-01T01:25:11;2.30;59.30
58447;DHT22;44240;51.840;7.258;2023-03-01T01:27:37;2.30;59.40
58447;DHT22;44240;51.840;7.258;2023-03-01T01:30:03;2.20;59.20
58447;DHT22;44240;51.840;7.258;2023-03-01T01:32:29;2.20;59.20
58447;DHT22;44240;51.840;7.258;2023-03-01T01:34:54;2.20;59.40
58447;DHT22;44240;51.840;7.258;2023-03-01T01:37:20;2.10;59.40
58447;DHT22;44240;51.840;7.258;2023-03-01T01:39:46;2.10;59.40
58447;DHT22;44240;51.840;7.258;2023-03-01T01:42:16;2.10;59.50
58447;DHT22;44240;51.840;7.258;2023-03-01T01:44:45;2.10;59.60
58447;DHT22;44240;51.840;7.258;2023-03-01T01:47:18;2.10;59.70
58447;DHT22;44240;51.840;7.258;2023-03-01T01:49:54;2.10;59.70
58447;DHT22;44240;51.840;7.258;2023-03-01T01:52:34;2.10;59.70
58447;DHT22;44240;51.840;7.258;2023-03-01T01:55:08;2.00;59.70
58447;DHT22;44240;51.840;7.258;2023-03-01T01:57:37;2.00;59.70
58447;DHT22;44240;51.840;7.258;2023-03-01T02:00:11;2.00;59.70
58447;DHT22;44240;51.840;7.258;2023-03-01T02:02:38;2.00;59.70
58447;DHT22;44240;51.840;7.258;2023-03-01T02:07:53;2.00;59.80
58447;DHT22;44240;51.840;7.258;2023-03-01T02:10:20;1.90;59.80
58447;DHT22;44240;51.840;7.258;2023-03-01T02:12:46;1.90;59.80
58447;DHT22;44240;51.840;7.258;2023-03-01T02:15:12;1.90;59.80
58447;DHT22;44240;51.840;7.258;2023-03-01T02:17:37;1.90;59.90
58447;DHT22;44240;51.840;7.258;2023-03-01T02:20:15;1.90;59.90
58447;DHT22;44240;51.840;7.258;2023-03-01T02:22:45;1.80;60.00
58447;DHT22;44240;51.840;7.258;2023-03-01T02:25:27;1.80;60.00
58447;DHT22;44240;51.840;7.258;2023-03-01T02:30:40;1.80;60.10
58447;DHT22;44240;51.840;7.258;2023-03-01T02:33:26;1.80;60.10
58447;DHT22;44240;51.840;7.258;2023-03-01T02:35:54;1.80;60.10
58447;DHT22;44240;51.840;7.258;2023-03-01T02:38:21;1.80;60.10
58447;DHT22;44240;51.840;7.258;2023-03-01T02:40:49;1.70;60.10
58447;DHT22;44240;51.840;7.258;2023-03-01T02:43:16;1.70;60.10
58447;DHT22;44240;51.840;7.258;2023-03-01T02:45:48;1.70;60.20
58447;DHT22;44240;51.840;7.258;2023-03-01T02:48:14;1.70;60.20
58447;DHT22;44240;51.840;7.258;2023-03-01T02:51:11;1.70;60.20
58447;DHT22;44240;51.840;7.258;2023-03-01T02:53:45;1.70;60.30
58447;DHT22;44240;51.840;7.258;2023-03-01T02:56:14;1.70;60.40
58447;DHT22;44240;51.840;7.258;2023-03-01T02:58:41;1.70;60.40
58447;DHT22;44240;51.840;7.258;2023-03-01T03:01:14;1.70;60.50
58447;DHT22;44240;51.840;7.258;2023-03-01T03:03:41;1.70;60.50
58447;DHT22;44240;51.840;7.258;2023-03-01T03:06:07;1.70;60.50
58447;DHT22;44240;51.840;7.258;2023-03-01T03:08:33;1.60;60.50
58447;DHT22;44240;51.840;7.258;2023-03-01T03:10:59;1.60;60.50
58447;DHT22;44240;51.840;7.258;2023-03-01T03:13:24;1.60;60.50
58447;DHT22;44240;51.840;7.258;2023-03-01T03:15:54;1.60;60.60
58447;DHT22;44240;51.840;7.258;2023-03-01T03:18:19;1.60;60.70
58447;DHT22;44240;51.840;7.258;2023-03-01T03:20:46;1.60;60.80
58447;DHT22;44240;51.840;7.258;2023-03-01T03:23:12;1.60;60.80
58447;DHT22;44240;51.840;7.258;2023-03-01T03:25:38;1.60;60.80
58447;DHT22;44240;51.840;7.258;2023-03-01T03:28:05;1.50;60.70
58447;DHT22;44240;51.840;7.258;2023-03-01T03:30:36;1.60;61.00
58447;DHT22;44240;51.840;7.258;2023-03-01T03:33:02;1.50;61.00
58447;DHT22;44240;51.840;7.258;2023-03-01T03:35:32;1.50;61.00
58447;DHT22;44240;51.840;7.258;2023-03-01T03:38:01;1.50;61.00
58447;DHT22;44240;51.840;7.258;2023-03-01T03:40:40;1.50;61.10
58447;DHT22;44240;51.840;7.258;2023-03-01T03:43:09;1.40;61.00
58447;DHT22;44240;51.840;7.258;2023-03-01T03:45:35;1.40;61.10
58447;DHT22;44240;51.840;7.258;2023-03-01T03:48:03;1.40;61.20
58447;DHT22;44240;51.840;7.258;2023-03-01T03:50:29;1.40;61.20
58447;DHT22;44240;51.840;7.258;2023-03-01T03:52:55;1.40;61.20
58447;DHT22;44240;51.840;7.258;2023-03-01T03:55:20;1.40;61.30
58447;DHT22;44240;51.840;7.258;2023-03-01T03:57:49;1.40;61.30
58447;DHT22;44240;51.840;7.258;2023-03-01T04:00:20;1.40;61.30
58447;DHT22;44240;51.840;7.258;2023-03-01T04:02:47;1.30;61.30
58447;DHT22;44240;51.840;7.258;2023-03-01T04:05:15;1.40;61.40
58447;DHT22;44240;51.840;7.258;2023-03-01T04:07:41;1.40;61.50
58447;DHT22;44240;51.840;7.258;2023-03-01T04:10:11;1.40;61.40
58447;DHT22;44240;51.840;7.258;2023-03-01T04:12:36;1.30;61.40
58447;DHT22;44240;51.840;7.258;2023-03-01T04:15:06;1.40;61.40
58447;DHT22;44240;51.840;7.258;2023-03-01T04:17:46;1.30;61.50
58447;DHT22;44240;51.840;7.258;2023-03-01T04:20:14;1.30;61.40
58447;DHT22;44240;51.840;7.258;2023-03-01T04:22:43;1.30;61.40
58447;DHT22;44240;51.840;7.258;2023-03-01T04:25:12;1.30;61.60
58447;DHT22;44240;51.840;7.258;2023-03-01T04:27:40;1.20;61.50
58447;DHT22;44240;51.840;7.258;2023-03-01T04:30:07;1.20;61.70
58447;DHT22;44240;51.840;7.258;2023-03-01T04:32:33;1.20;61.80
58447;DHT22;44240;51.840;7.258;2023-03-01T04:35:00;1.20;61.80
58447;DHT22;44240;51.840;7.258;2023-03-01T04:37:26;1.20;61.90
58447;DHT22;44240;51.840;7.258;2023-03-01T04:39:52;1.20;61.90
58447;DHT22;44240;51.840;7.258;2023-03-01T04:42:17;1.20;62.00
58447;DHT22;44240;51.840;7.258;2023-03-01T04:44:43;1.20;62.00
58447;DHT22;44240;51.840;7.258;2023-03-01T04:47:09;1.20;62.00
58447;DHT22;44240;51.840;7.258;2023-03-01T04:49:35;1.10;62.00
58447;DHT22;44240;51.840;7.258;2023-03-01T04:52:01;1.20;62.10
58447;DHT22;44240;51.840;7.258;2023-03-01T04:54:33;1.20;62.20
58447;DHT22;44240;51.840;7.258;2023-03-01T04:57:00;1.20;62.10
58447;DHT22;44240;51.840;7.258;2023-03-01T04:59:26;1.10;62.00
58447;DHT22;44240;51.840;7.258;2023-03-01T05:01:53;1.10;62.20
58447;DHT22;44240;51.840;7.258;2023-03-01T05:04:23;1.10;62.20
58447;DHT22;44240;51.840;7.258;2023-03-01T05:06:49;1.10;62.20
58447;DHT22;44240;51.840;7.258;2023-03-01T05:09:15;1.10;62.20
58447;DHT22;44240;51.840;7.258;2023-03-01T05:11:40;1.10;62.30
58447;DHT22;44240;51.840;7.258;2023-03-01T05:14:07;1.10;62.40
58447;DHT22;44240;51.840;7.258;2023-03-01T05:16:33;1.10;62.40
58447;DHT22;44240;51.840;7.258;2023-03-01T05:18:59;1.10;62.50
58447;DHT22;44240;51.840;7.258;2023-03-01T05:21:25;1.10;62.40
58447;DHT22;44240;51.840;7.258;2023-03-01T05:23:51;1.10;63.40
58447;DHT22;44240;51.840;7.258;2023-03-01T05:26:19;1.10;62.40
58447;DHT22;44240;51.840;7.258;2023-03-01T05:28:47;1.10;62.40
58447;DHT22;44240;51.840;7.258;2023-03-01T05:31:12;1.10;62.40
58447;DHT22;44240;51.840;7.258;2023-03-01T05:33:39;1.10;62.40
58447;DHT22;44240;51.840;7.258;2023-03-01T05:36:08;1.10;62.40
58447;DHT22;44240;51.840;7.258;2023-03-01T05:38:35;1.10;62.40
58447;DHT22;44240;51.840;7.258;2023-03-01T05:41:01;1.10;62.40
58447;DHT22;44240;51.840;7.258;2023-03-01T05:43:30;1.10;62.40
58447;DHT22;44240;51.840;7.258;2023-03-01T05:45:59;1.10;62.50
58447;DHT22;44240;51.840;7.258;2023-03-01T05:48:25;1.10;62.50
58447;DHT22;44240;51.840;7.258;2023-03-01T05:50:51;1.10;62.50
58447;DHT22;44240;51.840;7.258;2023-03-01T05:53:19;1.10;62.60
58447;DHT22;44240;51.840;7.258;2023-03-01T05:55:46;1.10;62.70
58447;DHT22;44240;51.840;7.258;2023-03-01T05:58:16;1.00;63.20
58447;DHT22;44240;51.840;7.258;2023-03-01T06:00:43;1.00;62.60
58447;DHT22;44240;51.840;7.258;2023-03-01T06:03:11;1.10;62.80
58447;DHT22;44240;51.840;7.258;2023-03-01T06:05:37;1.10;62.70
58447;DHT22;44240;51.840;7.258;2023-03-01T06:08:04;1.00;62.70
58447;DHT22;44240;51.840;7.258;2023-03-01T06:10:29;1.00;62.80
58447;DHT22;44240;51.840;7.258;2023-03-01T06:12:55;1.00;62.80
58447;DHT22;44240;51.840;7.258;2023-03-01T06:15:21;1.00;62.90
58447;DHT22;44240;51.840;7.258;2023-03-01T06:17:47;1.00;62.90
58447;DHT22;44240;51.840;7.258;2023-03-01T06:20:15;1.00;63.00
58447;DHT22;44240;51.840;7.258;2023-03-01T06:22:42;1.00;63.00
58447;DHT22;44240;51.840;7.258;2023-03-01T06:25:08;1.00;63.00
58447;DHT22;44240;51.840;7.258;2023-03-01T06:27:34;1.00;63.20
58447;DHT22;44240;51.840;7.258;2023-03-01T06:30:00;1.00;63.20
58447;DHT22;44240;51.840;7.258;2023-03-01T06:32:25;1.00;63.10
58447;DHT22;44240;51.840;7.258;2023-03-01T06:34:51;1.00;63.20
58447;DHT22;44240;51.840;7.258;2023-03-01T06:37:17;1.00;63.30
58447;DHT22;44240;51.840;7.258;2023-03-01T06:39:42;1.00;63.30
58447;DHT22;44240;51.840;7.258;2023-03-01T06:42:08;1.10;63.30
58447;DHT22;44240;51.840;7.258;2023-03-01T06:44:35;1.10;63.40
58447;DHT22;44240;51.840;7.258;2023-03-01T06:47:01;1.10;63.50
58447;DHT22;44240;51.840;7.258;2023-03-01T06:49:27;1.10;63.40
58447;DHT22;44240;51.840;7.258;2023-03-01T06:51:52;1.10;63.50
58447;DHT22;44240;51.840;7.258;2023-03-01T06:54:18;1.10;63.60
58447;DHT22;44240;51.840;7.258;2023-03-01T06:56:46;1.20;63.60
58447;DHT22;44240;51.840;7.258;2023-03-01T06:59:12;1.20;63.70
58447;DHT22;44240;51.840;7.258;2023-03-01T07:01:38;1.20;63.60
58447;DHT22;44240;51.840;7.258;2023-03-01T07:04:04;1.20;63.70
58447;DHT22;44240;51.840;7.258;2023-03-01T07:06:30;1.30;63.90
58447;DHT22;44240;51.840;7.258;2023-03-01T07:08:55;1.30;63.90
58447;DHT22;44240;51.840;7.258;2023-03-01T07:11:21;1.40;64.00
58447;DHT22;44240;51.840;7.258;2023-03-01T07:13:46;1.50;63.90
58447;DHT22;44240;51.840;7.258;2023-03-01T07:16:12;1.50;63.70
58447;DHT22;44240;51.840;7.258;2023-03-01T07:18:39;1.50;63.70
58447;DHT22;44240;51.840;7.258;2023-03-01T07:21:06;1.50;63.60
58447;DHT22;44240;51.840;7.258;2023-03-01T07:23:32;1.50;63.60
58447;DHT22;44240;51.840;7.258;2023-03-01T07:25:57;1.60;63.60
58447;DHT22;44240;51.840;7.258;2023-03-01T07:28:23;1.60;63.60
58447;DHT22;44240;51.840;7.258;2023-03-01T07:30:49;1.70;63.60
58447;DHT22;44240;51.840;7.258;2023-03-01T07:33:14;1.70;63.60
58447;DHT22;44240;51.840;7.258;2023-03-01T07:35:40;1.70;63.50
58447;DHT22;44240;51.840;7.258;2023-03-01T07:38:05;1.70;63.40
58447;DHT22;44240;51.840;7.258;2023-03-01T07:40:31;1.80;63.40
58447;DHT22;44240;51.840;7.258;2023-03-01T07:42:57;1.80;63.50
58447;DHT22;44240;51.840;7.258;2023-03-01T07:45:24;1.90;63.50
58447;DHT22;44240;51.840;7.258;2023-03-01T07:47:51;1.90;63.40
58447;DHT22;44240;51.840;7.258;2023-03-01T07:50:16;2.00;63.40
58447;DHT22;44240;51.840;7.258;2023-03-01T07:52:44;2.10;63.40
58447;DHT22;44240;51.840;7.258;2023-03-01T07:55:10;2.20;63.30
58447;DHT22;44240;51.840;7.258;2023-03-01T07:57:35;2.20;63.20
58447;DHT22;44240;51.840;7.258;2023-03-01T08:00:01;2.30;63.20
58447;DHT22;44240;51.840;7.258;2023-03-01T08:02:26;2.40;63.00
58447;DHT22;44240;51.840;7.258;2023-03-01T08:04:52;2.50;63.00
58447;DHT22;44240;51.840;7.258;2023-03-01T08:07:17;2.50;62.90
58447;DHT22;44240;51.840;7.258;2023-03-01T08:09:43;2.60;62.80
58447;DHT22;44240;51.840;7.258;2023-03-01T08:12:08;2.70;62.60
58447;DHT22;44240;51.840;7.258;2023-03-01T08:14:34;2.80;62.90
58447;DHT22;44240;51.840;7.258;2023-03-01T08:16:59;2.90;62.60
58447;DHT22;44240;51.840;7.258;2023-03-01T08:19:25;3.10;62.40
58447;DHT22;44240;51.840;7.258;2023-03-01T08:21:50;3.20;62.00
58447;DHT22;44240;51.840;7.258;2023-03-01T08:24:16;3.30;61.80
58447;DHT22;44240;51.840;7.258;2023-03-01T08:26:41;3.40;61.50
58447;DHT22;44240;51.840;7.258;2023-03-01T08:29:07;3.50;61.30
58447;DHT22;44240;51.840;7.258;2023-03-01T08:31:35;3.60;60.90
58447;DHT22;44240;51.840;7.258;2023-03-01T08:34:03;3.70;60.70
58447;DHT22;44240;51.840;7.258;2023-03-01T08:36:39;3.80;60.50
58447;DHT22;44240;51.840;7.258;2023-03-01T08:39:06;3.80;60.00
58447;DHT22;44240;51.840;7.258;2023-03-01T08:41:32;3.90;60.10
58447;DHT22;44240;51.840;7.258;2023-03-01T08:43:58;4.00;59.90
58447;DHT22;44240;51.840;7.258;2023-03-01T08:46:27;4.10;59.80
58447;DHT22;44240;51.840;7.258;2023-03-01T08:48:53;4.10;59.40
58447;DHT22;44240;51.840;7.258;2023-03-01T08:51:20;4.20;59.20
58447;DHT22;44240;51.840;7.258;2023-03-01T08:53:46;4.20;59.00
58447;DHT22;44240;51.840;7.258;2023-03-01T08:56:12;4.30;58.80
58447;DHT22;44240;51.840;7.258;2023-03-01T08:58:38;4.30;58.80
58447;DHT22;44240;51.840;7.258;2023-03-01T09:01:11;4.40;58.60
58447;DHT22;44240;51.840;7.258;2023-03-01T09:03:37;4.40;58.30
58447;DHT22;44240;51.840;7.258;2023-03-01T09:06:03;4.50;58.10
58447;DHT22;44240;51.840;7.258;2023-03-01T09:08:30;4.50;58.20
58447;DHT22;44240;51.840;7.258;2023-03-01T09:10:56;4.60;57.80
58447;DHT22;44240;51.840;7.258;2023-03-01T09:13:22;4.70;57.70
58447;DHT22;44240;51.840;7.258;2023-03-01T09:15:51;4.80;57.50
58447;DHT22;44240;51.840;7.258;2023-03-01T09:18:17;4.80;57.50
58447;DHT22;44240;51.840;7.258;2023-03-01T09:20:42;4.90;57.30
58447;DHT22;44240;51.840;7.258;2023-03-01T09:23:08;5.00;57.10
58447;DHT22;44240;51.840;7.258;2023-03-01T09:25:34;5.10;56.70
58447;DHT22;44240;51.840;7.258;2023-03-01T09:28:00;5.10;56.50
58447;DHT22;44240;51.840;7.258;2023-03-01T09:30:25;5.20;56.10
58447;DHT22;44240;51.840;7.258;2023-03-01T09:32:51;5.20;56.00
58447;DHT22;44240;51.840;7.258;2023-03-01T09:35:17;5.30;55.90
58447;DHT22;44240;51.840;7.258;2023-03-01T09:37:45;5.30;55.60
58447;DHT22;44240;51.840;7.258;2023-03-01T09:40:16;5.40;55.30
58447;DHT22;44240;51.840;7.258;2023-03-01T09:43:07;5.40;55.10
58447;DHT22;44240;51.840;7.258;2023-03-01T09:45:36;5.50;55.30
58447;DHT22;44240;51.840;7.258;2023-03-01T09:48:07;5.60;55.40
58447;DHT22;44240;51.840;7.258;2023-03-01T09:50:39;5.70;54.60
58447;DHT22;44240;51.840;7.258;2023-03-01T09:53:16;5.80;53.80
58447;DHT22;44240;51.840;7.258;2023-03-01T09:56:22;5.90;53.40
58447;DHT22;44240;51.840;7.258;2023-03-01T09:59:03;5.90;52.40
58447;DHT22;44240;51.840;7.258;2023-03-01T10:01:54;5.90;52.20
58447;DHT22;44240;51.840;7.258;2023-03-01T10:04:40;5.90;52.20
58447;DHT22;44240;51.840;7.258;2023-03-01T10:09:41;6.10;51.80
58447;DHT22;44240;51.840;7.258;2023-03-01T10:12:17;6.20;51.20
58447;DHT22;44240;51.840;7.258;2023-03-01T10:18:15;6.30;51.10
58447;DHT22;44240;51.840;7.258;2023-03-01T10:20:57;6.40;50.40
58447;DHT22;44240;51.840;7.258;2023-03-01T10:23:28;6.40;50.50
58447;DHT22;44240;51.840;7.258;2023-03-01T10:26:15;6.50;50.90
58447;DHT22;44240;51.840;7.258;2023-03-01T10:28:54;6.60;50.10
58447;DHT22;44240;51.840;7.258;2023-03-01T10:31:27;6.70;49.20
58447;DHT22;44240;51.840;7.258;2023-03-01T10:34:02;6.70;48.90
58447;DHT22;44240;51.840;7.258;2023-03-01T10:36:33;6.80;48.30
58447;DHT22;44240;51.840;7.258;2023-03-01T10:38:59;6.80;48.20
58447;DHT22;44240;51.840;7.258;2023-03-01T10:41:26;6.80;48.30
58447;DHT22;44240;51.840;7.258;2023-03-01T10:43:53;6.80;49.00
58447;DHT22;44240;51.840;7.258;2023-03-01T10:46:34;6.90;48.20
58447;DHT22;44240;51.840;7.258;2023-03-01T10:49:20;7.00;48.70
58447;DHT22;44240;51.840;7.258;2023-03-01T10:51:48;7.10;49.00
58447;DHT22;44240;51.840;7.258;2023-03-01T10:54:31;7.10;48.50
58447;DHT22;44240;51.840;7.258;2023-03-01T10:57:01;7.20;47.70
58447;DHT22;44240;51.840;7.258;2023-03-01T11:04:29;7.40;48.50
58447;DHT22;44240;51.840;7.258;2023-03-01T11:06:59;7.40;47.80
58447;DHT22;44240;51.840;7.258;2023-03-01T11:09:25;7.40;47.10
58447;DHT22;44240;51.840;7.258;2023-03-01T11:11:57;7.40;46.80
58447;DHT22;44240;51.840;7.258;2023-03-01T11:14:27;7.40;47.00
58447;DHT22;44240;51.840;7.258;2023-03-01T11:19:29;7.50;47.00
58447;DHT22;44240;51.840;7.258;2023-03-01T11:21:57;7.50;46.70
58447;DHT22;44240;51.840;7.258;2023-03-01T11:24:36;7.50;46.30
58447;DHT22;44240;51.840;7.258;2023-03-01T11:27:10;7.50;46.40
58447;DHT22;44240;51.840;7.258;2023-03-01T11:29:45;7.50;46.40
58447;DHT22;44240;51.840;7.258;2023-03-01T11:32:13;7.60;46.50
58447;DHT22;44240;51.840;7.258;2023-03-01T11:38:08;7.60;46.50
58447;DHT22;44240;51.840;7.258;2023-03-01T11:40:58;7.60;46.60
58447;DHT22;44240;51.840;7.258;2023-03-01T11:51:52;7.70;46.50
58447;DHT22;44240;51.840;7.258;2023-03-01T11:54:27;7.70;46.60
58447;DHT22;44240;51.840;7.258;2023-03-01T12:08:37;7.70;46.80
58447;DHT22;44240;51.840;7.258;2023-03-01T12:11:36;7.70;46.30
58447;DHT22;44240;51.840;7.258;2023-03-01T12:14:18;7.80;46.50
58447;DHT22;44240;51.840;7.258;2023-03-01T12:22:13;7.80;45.80
58447;DHT22;44240;51.840;7.258;2023-03-01T12:25:04;7.90;45.90
58447;DHT22;44240;51.840;7.258;2023-03-01T12:30:33;7.90;45.50
58447;DHT22;44240;51.840;7.258;2023-03-01T12:33:22;8.00;45.50
58447;DHT22;44240;51.840;7.258;2023-03-01T12:35:54;8.10;45.90
58447;DHT22;44240;51.840;7.258;2023-03-01T12:38:33;8.20;45.40
58447;DHT22;44240;51.840;7.258;2023-03-01T12:41:20;8.30;44.80
58447;DHT22;44240;51.840;7.258;2023-03-01T12:44:11;8.30;44.70
58447;DHT22;44240;51.840;7.258;2023-03-01T12:46:51;8.40;44.70
58447;DHT22;44240;51.840;7.258;2023-03-01T12:49:57;8.50;44.70
58447;DHT22;44240;51.840;7.258;2023-03-01T12:52:38;8.60;44.30
58447;DHT22;44240;51.840;7.258;2023-03-01T13:00:39;8.80;43.10
58447;DHT22;44240;51.840;7.258;2023-03-01T13:06:25;8.90;43.10
58447;DHT22;44240;51.840;7.258;2023-03-01T13:09:14;9.00;42.90
58447;DHT22;44240;51.840;7.258;2023-03-01T13:11:44;9.00;42.70
58447;DHT22;44240;51.840;7.258;2023-03-01T13:16:49;9.20;43.40
58447;DHT22;44240;51.840;7.258;2023-03-01T13:19:26;9.20;43.00
58447;DHT22;44240;51.840;7.258;2023-03-01T13:21:54;9.30;42.80
58447;DHT22;44240;51.840;7.258;2023-03-01T13:29:44;9.60;42.40
58447;DHT22;44240;51.840;7.258;2023-03-01T13:37:42;9.80;42.40
58447;DHT22;44240;51.840;7.258;2023-03-01T13:42:45;9.90;41.60
58447;DHT22;44240;51.840;7.258;2023-03-01T13:46:02;9.90;41.10
58447;DHT22;44240;51.840;7.258;2023-03-01T13:48:28;10.00;41.00
58447;DHT22;44240;51.840;7.258;2023-03-01T13:50:58;10.10;41.00
58447;DHT22;44240;51.840;7.258;2023-03-01T13:53:29;10.10;40.50
58447;DHT22;44240;51.840;7.258;2023-03-01T13:56:02;10.20;40.40
58447;DHT22;44240;51.840;7.258;2023-03-01T13:58:31;10.20;40.60
58447;DHT22;44240;51.840;7.258;2023-03-01T14:03:28;10.40;40.80
58447;DHT22;44240;51.840;7.258;2023-03-01T14:08:26;10.50;40.20
58447;DHT22;44240;51.840;7.258;2023-03-01T14:11:04;10.60;40.40
58447;DHT22;44240;51.840;7.258;2023-03-01T14:21:44;10.80;38.90
58447;DHT22;44240;51.840;7.258;2023-03-01T14:24:21;10.90;39.00
58447;DHT22;44240;51.840;7.258;2023-03-01T14:26:48;11.00;39.30
58447;DHT22;44240;51.840;7.258;2023-03-01T14:29:37;11.10;39.40
58447;DHT22;44240;51.840;7.258;2023-03-01T14:32:21;11.20;39.20
58447;DHT22;44240;51.840;7.258;2023-03-01T14:34:50;11.30;38.80
58447;DHT22;44240;51.840;7.258;2023-03-01T14:37:26;11.30;38.30
58447;DHT22;44240;51.840;7.258;2023-03-01T14:39:52;11.40;38.40
58447;DHT22;44240;51.840;7.258;2023-03-01T14:42:21;11.50;37.70
58447;DHT22;44240;51.840;7.258;2023-03-01T14:44:49;11.70;37.30
58447;DHT22;44240;51.840;7.258;2023-03-01T14:50:04;14.80;33.00
58447;DHT22;44240;51.840;7.258;2023-03-01T14:52:39;16.00;30.70
58447;DHT22;44240;51.840;7.258;2023-03-01T14:55:13;16.60;30.00
58447;DHT22;44240;51.840;7.258;2023-03-01T14:57:44;17.50;29.30
58447;DHT22;44240;51.840;7.258;2023-03-01T15:00:29;18.40;28.40
58447;DHT22;44240;51.840;7.258;2023-03-01T15:02:58;18.60;27.90
58447;DHT22;44240;51.840;7.258;2023-03-01T15:05:29;18.30;28.40
58447;DHT22;44240;51.840;7.258;2023-03-01T15:07:58;18.20;28.00
58447;DHT22;44240;51.840;7.258;2023-03-01T15:10:29;18.00;28.00
58447;DHT22;44240;51.840;7.258;2023-03-01T15:12:55;17.50;29.50
58447;DHT22;44240;51.840;7.258;2023-03-01T15:15:30;17.10;29.60
58447;DHT22;44240;51.840;7.258;2023-03-01T15:18:00;16.70;29.50
58447;DHT22;44240;51.840;7.258;2023-03-01T15:20:27;16.50;29.70
58447;DHT22;44240;51.840;7.258;2023-03-01T15:22:55;16.30;29.50
58447;DHT22;44240;51.840;7.258;2023-03-01T15:25:24;16.30;29.80
58447;DHT22;44240;51.840;7.258;2023-03-01T15:27:52;16.20;29.50
58447;DHT22;44240;51.840;7.258;2023-03-01T15:30:22;16.10;29.30
58447;DHT22;44240;51.840;7.258;2023-03-01T15:32:59;16.00;29.90
58447;DHT22;44240;51.840;7.258;2023-03-01T15:35:47;16.40;29.70
58447;DHT22;44240;51.840;7.258;2023-03-01T15:41:03;16.90;29.40
58447;DHT22;44240;51.840;7.258;2023-03-01T15:43:45;17.60;28.70
58447;DHT22;44240;51.840;7.258;2023-03-01T15:46:21;18.10;28.20
58447;DHT22;44240;51.840;7.258;2023-03-01T15:48:50;18.20;27.40
58447;DHT22;44240;51.840;7.258;2023-03-01T15:51:19;18.20;27.00
58447;DHT22;44240;51.840;7.258;2023-03-01T15:53:50;18.10;27.70
58447;DHT22;44240;51.840;7.258;2023-03-01T15:56:16;17.00;28.10
58447;DHT22;44240;51.840;7.258;2023-03-01T15:58:42;15.90;29.20
58447;DHT22;44240;51.840;7.258;2023-03-01T16:01:14;15.00;29.80
58447;DHT22;44240;51.840;7.258;2023-03-01T16:03:42;14.20;30.50
58447;DHT22;44240;51.840;7.258;2023-03-01T16:06:09;13.50;31.70
58447;DHT22;44240;51.840;7.258;2023-03-01T16:08:35;13.00;32.20
58447;DHT22;44240;51.840;7.258;2023-03-01T16:11:01;12.50;32.90
58447;DHT22;44240;51.840;7.258;2023-03-01T16:13:30;12.10;33.20
58447;DHT22;44240;51.840;7.258;2023-03-01T16:15:57;11.80;34.00
58447;DHT22;44240;51.840;7.258;2023-03-01T16:18:22;11.50;34.50
58447;DHT22;44240;51.840;7.258;2023-03-01T16:20:48;11.20;35.00
58447;DHT22;44240;51.840;7.258;2023-03-01T16:23:14;11.00;35.50
58447;DHT22;44240;51.840;7.258;2023-03-01T16:25:40;10.90;35.90
58447;DHT22;44240;51.840;7.258;2023-03-01T16:28:06;10.70;36.20
58447;DHT22;44240;51.840;7.258;2023-03-01T16:30:36;10.50;36.80
58447;DHT22;44240;51.840;7.258;2023-03-01T16:33:02;10.40;37.20
58447;DHT22;44240;51.840;7.258;2023-03-01T16:35:27;10.30;37.70
58447;DHT22;44240;51.840;7.258;2023-03-01T16:37:54;10.10;37.70
58447;DHT22;44240;51.840;7.258;2023-03-01T16:40:22;10.00;38.00
58447;DHT22;44240;51.840;7.258;2023-03-01T16:42:49;9.90;38.30
58447;DHT22;44240;51.840;7.258;2023-03-01T16:45:15;9.70;38.40
58447;DHT22;44240;51.840;7.258;2023-03-01T16:47:40;9.60;38.90
58447;DHT22;44240;51.840;7.258;2023-03-01T16:50:06;9.50;39.20
58447;DHT22;44240;51.840;7.258;2023-03-01T16:52:33;9.30;39.40
58447;DHT22;44240;51.840;7.258;2023-03-01T16:54:58;9.30;39.70
58447;DHT22;44240;51.840;7.258;2023-03-01T16:57:24;9.10;39.70
58447;DHT22;44240;51.840;7.258;2023-03-01T16:59:52;9.00;39.90
58447;DHT22;44240;51.840;7.258;2023-03-01T17:02:21;8.90;40.10
58447;DHT22;44240;51.840;7.258;2023-03-01T17:04:54;8.80;40.30
58447;DHT22;44240;51.840;7.258;2023-03-01T17:07:20;8.70;40.50
58447;DHT22;44240;51.840;7.258;2023-03-01T17:09:45;8.60;40.80
58447;DHT22;44240;51.840;7.258;2023-03-01T17:12:15;8.60;40.90
58447;DHT22;44240;51.840;7.258;2023-03-01T17:14:41;8.50;40.90
58447;DHT22;44240;51.840;7.258;2023-03-01T17:17:08;8.40;41.20
58447;DHT22;44240;51.840;7.258;2023-03-01T17:19:33;8.20;41.40
58447;DHT22;44240;51.840;7.258;2023-03-01T17:22:03;8.20;41.70
58447;DHT22;44240;51.840;7.258;2023-03-01T17:24:36;8.10;41.90
58447;DHT22;44240;51.840;7.258;2023-03-01T17:27:02;8.00;42.10
58447;DHT22;44240;51.840;7.258;2023-03-01T17:29:28;7.90;42.20
58447;DHT22;44240;51.840;7.258;2023-03-01T17:31:53;7.80;42.50